createdAt,value
2023-11-15T00:00:39.939Z,993.76
2023-11-15T00:01:39.887Z,993.74
2023-11-15T00:02:39.894Z,993.70
2023-11-15T00:03:39.953Z,993.72
2023-11-15T00:04:39.859Z,993.71
2023-11-15T00:05:39.917Z,993.69
2023-11-15T00:06:39.954Z,993.69
2023-11-15T00:07:39.804Z,993.67
2023-11-15T00:08:39.876Z,993.70
2023-11-15T00:09:39.783Z,993.73
2023-11-15T00:10:39.786Z,993.68
2023-11-15T00:11:39.791Z,993.75
2023-11-15T00:12:39.844Z,993.70
2023-11-15T00:13:39.764Z,993.75
2023-11-15T00:14:39.769Z,993.72
2023-11-15T00:15:39.768Z,993.74
2023-11-15T00:16:39.747Z,993.75
2023-11-15T00:17:39.783Z,993.73
2023-11-15T00:18:39.821Z,993.76
2023-11-15T00:19:39.669Z,993.80
2023-11-15T00:20:39.690Z,993.77
2023-11-15T00:21:39.632Z,993.77
2023-11-15T00:22:39.636Z,993.83
2023-11-15T00:23:39.657Z,993.75
2023-11-15T00:24:39.663Z,993.79
2023-11-15T00:25:39.662Z,993.77
2023-11-15T00:26:39.609Z,993.84
2023-11-15T00:27:39.599Z,993.77
2023-11-15T00:28:39.586Z,993.83
2023-11-15T00:29:39.728Z,993.78
2023-11-15T00:30:39.605Z,993.84
2023-11-15T00:31:39.543Z,993.80
2023-11-15T00:32:39.618Z,993.84
2023-11-15T00:33:39.606Z,993.88
2023-11-15T00:34:39.511Z,993.83
2023-11-15T00:35:39.590Z,993.84
2023-11-15T00:36:39.547Z,993.83
2023-11-15T00:37:39.475Z,993.83
2023-11-15T00:38:39.508Z,993.84
2023-11-15T00:39:39.446Z,993.81
2023-11-15T00:40:39.465Z,993.82
2023-11-15T00:41:39.449Z,993.89
2023-11-15T00:42:39.453Z,993.87
2023-11-15T00:43:39.395Z,993.85
2023-11-15T00:44:39.399Z,993.85
2023-11-15T00:45:39.397Z,993.86
2023-11-15T00:46:39.370Z,993.90
2023-11-15T00:47:39.418Z,993.90
2023-11-15T00:48:39.396Z,993.91
2023-11-15T00:49:39.320Z,993.91
2023-11-15T00:50:39.371Z,993.89
2023-11-15T00:51:39.302Z,993.91
2023-11-15T00:52:39.294Z,993.95
2023-11-15T00:53:39.319Z,993.99
2023-11-15T00:54:39.317Z,993.96
2023-11-15T00:55:39.275Z,993.94
2023-11-15T00:56:39.310Z,994.00
2023-11-15T00:57:39.271Z,994.00
2023-11-15T00:58:39.229Z,994.03
2023-11-15T00:59:39.262Z,993.97
2023-11-15T01:00:39.256Z,994.05
2023-11-15T01:01:39.234Z,994.04
2023-11-15T01:02:39.282Z,994.04
2023-11-15T01:03:39.416Z,994.04
2023-11-15T01:04:39.173Z,994.07
2023-11-15T01:05:39.161Z,994.06
2023-11-15T01:06:39.173Z,994.10
2023-11-15T01:07:39.125Z,994.09
2023-11-15T01:08:39.148Z,994.09
2023-11-15T01:09:39.143Z,994.09
2023-11-15T01:10:39.110Z,994.12
2023-11-15T01:11:39.140Z,994.10
2023-11-15T01:12:39.111Z,994.10
2023-11-15T01:13:39.069Z,994.12
2023-11-15T01:14:39.098Z,994.08
2023-11-15T01:15:39.056Z,994.18
2023-11-15T01:16:39.028Z,994.16
2023-11-15T01:17:39.064Z,994.18
2023-11-15T01:18:39.077Z,994.20
2023-11-15T01:19:39.013Z,994.16
2023-11-15T01:20:39.009Z,994.15
2023-11-15T01:21:38.957Z,994.15
2023-11-15T01:22:38.953Z,994.17
2023-11-15T01:23:38.972Z,994.16
2023-11-15T01:24:38.986Z,994.17
2023-11-15T01:25:38.922Z,994.19
2023-11-15T01:26:38.968Z,994.19
2023-11-15T01:27:38.900Z,994.22
2023-11-15T01:28:38.894Z,994.24
2023-11-15T01:29:38.908Z,994.23
2023-11-15T01:30:38.895Z,994.25
2023-11-15T01:31:38.878Z,994.26
2023-11-15T01:32:38.894Z,994.28
2023-11-15T01:33:38.910Z,994.29
2023-11-15T01:34:38.844Z,994.32
2023-11-15T01:35:38.858Z,994.33
2023-11-15T01:36:38.837Z,994.34
2023-11-15T01:37:38.821Z,994.32
2023-11-15T01:38:38.937Z,994.31
2023-11-15T01:39:38.766Z,994.31
2023-11-15T01:40:38.759Z,994.32
2023-11-15T01:41:38.777Z,994.34
2023-11-15T01:42:38.883Z,994.36
2023-11-15T01:43:38.720Z,994.32
2023-11-15T01:44:38.900Z,994.35
2023-11-15T01:45:38.786Z,994.35
2023-11-15T01:46:38.845Z,994.40
2023-11-15T01:47:38.835Z,994.38
2023-11-15T01:48:38.832Z,994.38
2023-11-15T01:49:38.648Z,994.39
2023-11-15T01:50:38.659Z,994.41
2023-11-15T01:51:38.620Z,994.44
2023-11-15T01:52:38.604Z,994.44
2023-11-15T01:53:38.623Z,994.45
2023-11-15T01:54:38.643Z,994.44
2023-11-15T01:55:38.587Z,994.47
2023-11-15T01:56:38.628Z,994.38
2023-11-15T01:57:38.576Z,994.46
2023-11-15T01:58:38.571Z,994.44
2023-11-15T01:59:38.542Z,994.44
2023-11-15T02:00:38.577Z,994.46
2023-11-15T02:01:38.558Z,994.48
2023-11-15T02:02:38.603Z,994.41
2023-11-15T02:03:38.681Z,994.47
2023-11-15T02:04:38.504Z,994.47
2023-11-15T02:05:38.523Z,994.47
2023-11-15T02:06:38.549Z,994.48
2023-11-15T02:07:38.445Z,994.45
2023-11-15T02:08:38.502Z,994.51
2023-11-15T02:09:38.446Z,994.54
2023-11-15T02:10:38.424Z,994.52
2023-11-15T02:11:38.462Z,994.53
2023-11-15T02:12:38.454Z,994.54
2023-11-15T02:13:38.385Z,994.55
2023-11-15T02:14:38.389Z,994.54
2023-11-15T02:15:38.387Z,994.51
2023-11-15T02:16:38.411Z,994.50
2023-11-15T02:17:38.432Z,994.55
2023-11-15T02:18:38.441Z,994.53
2023-11-15T02:19:38.302Z,994.53
2023-11-15T02:20:38.313Z,994.52
2023-11-15T02:21:38.285Z,994.58
2023-11-15T02:22:38.293Z,994.56
2023-11-15T02:23:38.317Z,994.62
2023-11-15T02:24:38.303Z,994.57
2023-11-15T02:25:38.245Z,994.58
2023-11-15T02:26:38.261Z,994.60
2023-11-15T02:27:38.225Z,994.60
2023-11-15T02:28:38.227Z,994.64
2023-11-15T02:29:38.208Z,994.64
2023-11-15T02:30:38.252Z,994.68
2023-11-15T02:31:38.179Z,994.67
2023-11-15T02:32:38.227Z,994.70
2023-11-15T02:33:38.234Z,994.73
2023-11-15T02:34:38.167Z,994.75
2023-11-15T02:35:38.172Z,994.72
2023-11-15T02:36:38.173Z,994.72
2023-11-15T02:37:38.097Z,994.78
2023-11-15T02:38:38.125Z,994.77
2023-11-15T02:39:38.110Z,994.79
2023-11-15T02:40:39.758Z,994.82
2023-11-15T02:41:39.143Z,994.80
2023-11-15T02:42:38.065Z,994.82
2023-11-15T02:43:38.052Z,994.88
2023-11-15T02:44:38.129Z,994.85
2023-11-15T02:45:38.022Z,994.87
2023-11-15T02:46:38.070Z,994.84
2023-11-15T02:47:38.090Z,994.89
2023-11-15T02:48:38.129Z,994.86
2023-11-15T02:49:37.952Z,994.90
2023-11-15T02:50:38.080Z,994.91
2023-11-15T02:51:37.934Z,994.91
2023-11-15T02:52:37.966Z,994.92
2023-11-15T02:53:38.001Z,994.92
2023-11-15T02:54:37.924Z,994.98
2023-11-15T02:55:37.913Z,994.96
2023-11-15T02:56:37.912Z,995.04
2023-11-15T02:57:37.903Z,995.02
2023-11-15T02:58:37.881Z,995.02
2023-11-15T02:59:37.929Z,995.07
2023-11-15T03:00:37.870Z,995.05
2023-11-15T03:01:37.858Z,995.08
2023-11-15T03:02:37.917Z,995.07
2023-11-15T03:03:37.972Z,995.11
2023-11-15T03:04:37.824Z,995.12
2023-11-15T03:05:37.873Z,995.14
2023-11-15T03:06:37.779Z,995.16
2023-11-15T03:07:37.784Z,995.18
2023-11-15T03:08:37.790Z,995.22
2023-11-15T03:09:37.767Z,995.20
2023-11-15T03:10:37.735Z,995.19
2023-11-15T03:11:37.805Z,995.22
2023-11-15T03:12:37.705Z,995.26
2023-11-15T03:13:37.692Z,995.27
2023-11-15T03:14:37.749Z,995.28
2023-11-15T03:15:37.717Z,995.29
2023-11-15T03:16:37.742Z,995.31
2023-11-15T03:17:37.754Z,995.35
2023-11-15T03:18:37.699Z,995.37
2023-11-15T03:19:37.622Z,995.38
2023-11-15T03:20:37.664Z,995.39
2023-11-15T03:21:37.609Z,995.35
2023-11-15T03:22:37.599Z,995.41
2023-11-15T03:23:37.651Z,995.42
2023-11-15T03:24:37.575Z,995.44
2023-11-15T03:25:37.566Z,995.45
2023-11-15T03:26:37.553Z,995.48
2023-11-15T03:27:37.547Z,995.46
2023-11-15T03:28:37.517Z,995.52
2023-11-15T03:29:37.571Z,995.49
2023-11-15T03:30:37.504Z,995.52
2023-11-15T03:31:37.486Z,995.54
2023-11-15T03:32:37.558Z,995.59
2023-11-15T03:33:37.549Z,995.56
2023-11-15T03:34:37.455Z,995.58
2023-11-15T03:35:37.525Z,995.60
2023-11-15T03:36:37.440Z,995.65
2023-11-15T03:37:37.432Z,995.62
2023-11-15T03:38:37.453Z,995.62
2023-11-15T03:39:37.403Z,995.72
2023-11-15T03:40:37.393Z,995.71
2023-11-15T03:41:37.437Z,995.69
2023-11-15T03:42:37.378Z,995.78
2023-11-15T03:43:37.353Z,995.77
2023-11-15T03:44:37.366Z,995.82
2023-11-15T03:45:37.326Z,995.85
2023-11-15T03:46:37.354Z,995.77
2023-11-15T03:47:37.434Z,995.85
2023-11-15T03:48:37.343Z,995.96
2023-11-15T03:49:37.284Z,995.96
2023-11-15T03:50:37.301Z,995.92
2023-11-15T03:51:37.263Z,995.91
2023-11-15T03:52:37.236Z,995.97
2023-11-15T03:53:37.474Z,995.99
2023-11-15T03:54:37.237Z,995.99
2023-11-15T03:55:37.264Z,995.96
2023-11-15T03:56:37.205Z,996.03
2023-11-15T03:57:37.208Z,996.01
2023-11-15T03:58:37.178Z,996.02
2023-11-15T03:59:37.218Z,996.03
2023-11-15T04:00:37.158Z,996.09
2023-11-15T04:01:42.688Z,996.10
2023-11-15T04:02:38.270Z,996.14
2023-11-15T04:03:37.276Z,996.14
2023-11-15T04:04:37.278Z,996.19
2023-11-15T04:05:37.269Z,996.14
2023-11-15T04:06:37.089Z,996.17
2023-11-15T04:07:37.090Z,996.26
2023-11-15T04:08:37.078Z,996.26
2023-11-15T04:09:37.063Z,996.25
2023-11-15T04:10:37.055Z,996.27
2023-11-15T04:11:37.097Z,996.26
2023-11-15T04:12:37.016Z,996.35
2023-11-15T04:13:37.021Z,996.32
2023-11-15T04:14:37.008Z,996.34
2023-11-15T04:15:36.979Z,996.39
2023-11-15T04:16:36.981Z,996.39
2023-11-15T04:17:37.050Z,996.40
2023-11-15T04:18:37.106Z,996.33
2023-11-15T04:19:36.957Z,996.40
2023-11-15T04:20:36.981Z,996.42
2023-11-15T04:21:36.905Z,996.43
2023-11-15T04:22:36.915Z,996.43
2023-11-15T04:23:36.981Z,996.44
2023-11-15T04:24:36.876Z,996.53
2023-11-15T04:25:36.885Z,996.48
2023-11-15T04:26:36.877Z,996.54
2023-11-15T04:27:36.859Z,996.54
2023-11-15T04:28:36.839Z,996.53
2023-11-15T04:29:36.884Z,996.55
2023-11-15T04:30:36.826Z,996.57
2023-11-15T04:31:36.889Z,996.49
2023-11-15T04:32:36.881Z,996.55
2023-11-15T04:33:36.820Z,996.57
2023-11-15T04:34:36.786Z,996.62
2023-11-15T04:35:36.823Z,996.59
2023-11-15T04:36:36.761Z,996.62
2023-11-15T04:37:36.748Z,996.63
2023-11-15T04:38:36.742Z,996.63
2023-11-15T04:39:36.731Z,996.63
2023-11-15T04:40:36.707Z,996.57
2023-11-15T04:41:36.737Z,996.59
2023-11-15T04:42:36.682Z,996.65
2023-11-15T04:43:36.689Z,996.63
2023-11-15T04:44:36.813Z,996.70
2023-11-15T04:45:36.653Z,996.64
2023-11-15T04:46:36.642Z,996.75
2023-11-15T04:47:36.785Z,996.71
2023-11-15T04:48:36.842Z,996.69
2023-11-15T04:49:36.611Z,996.77
2023-11-15T04:50:36.638Z,996.77
2023-11-15T04:51:36.573Z,996.79
2023-11-15T04:52:36.567Z,996.78
2023-11-15T04:53:36.626Z,996.84
2023-11-15T04:54:36.559Z,996.83
2023-11-15T04:55:36.539Z,996.86
2023-11-15T04:56:36.539Z,996.86
2023-11-15T04:57:36.508Z,996.84
2023-11-15T04:58:36.517Z,996.90
2023-11-15T04:59:36.609Z,996.95
2023-11-15T05:00:36.486Z,996.93
2023-11-15T05:01:36.522Z,996.95
2023-11-15T05:02:36.590Z,997.02
2023-11-15T05:03:36.542Z,997.02
2023-11-15T05:04:36.547Z,997.07
2023-11-15T05:05:36.494Z,997.05
2023-11-15T05:06:36.418Z,997.08
2023-11-15T05:07:36.412Z,997.03
2023-11-15T05:08:36.422Z,997.12
2023-11-15T05:09:36.411Z,997.04
2023-11-15T05:10:36.367Z,997.15
2023-11-15T05:11:36.438Z,997.17
2023-11-15T05:12:36.363Z,997.18
2023-11-15T05:13:36.336Z,997.25
2023-11-15T05:14:36.342Z,997.30
2023-11-15T05:15:36.328Z,997.31
2023-11-15T05:16:36.296Z,997.31
2023-11-15T05:17:36.419Z,997.29
2023-11-15T05:18:36.296Z,997.31
2023-11-15T05:19:36.278Z,997.34
2023-11-15T05:20:36.292Z,997.33
2023-11-15T05:21:36.253Z,997.43
2023-11-15T05:22:36.251Z,997.39
2023-11-15T05:23:36.277Z,997.42
2023-11-15T05:24:36.199Z,997.41
2023-11-15T05:25:36.206Z,997.42
2023-11-15T05:26:36.209Z,997.49
2023-11-15T05:27:36.198Z,997.45
2023-11-15T05:28:36.176Z,997.49
2023-11-15T05:29:36.238Z,997.52
2023-11-15T05:30:36.144Z,997.56
2023-11-15T05:31:36.175Z,997.53
2023-11-15T05:32:36.145Z,997.59
2023-11-15T05:33:36.146Z,997.56
2023-11-15T05:34:36.103Z,997.60
2023-11-15T05:35:36.175Z,997.65
2023-11-15T05:36:36.106Z,997.63
2023-11-15T05:37:36.075Z,997.65
2023-11-15T05:38:36.065Z,997.60
2023-11-15T05:39:36.034Z,997.66
2023-11-15T05:40:36.019Z,997.72
2023-11-15T05:41:36.118Z,997.70
2023-11-15T05:42:36.029Z,997.73
2023-11-15T05:43:36.008Z,997.69
2023-11-15T05:44:36.039Z,997.77
2023-11-15T05:45:35.974Z,997.78
2023-11-15T05:46:35.990Z,997.78
2023-11-15T05:47:36.067Z,997.72
2023-11-15T05:48:35.997Z,997.78
2023-11-15T05:49:35.948Z,997.81
2023-11-15T05:50:35.930Z,997.88
2023-11-15T05:51:35.907Z,997.93
2023-11-15T05:52:35.892Z,997.97
2023-11-15T05:53:35.940Z,998.01
2023-11-15T05:54:35.864Z,998.03
2023-11-15T05:55:35.841Z,998.02
2023-11-15T05:56:35.866Z,998.03
2023-11-15T05:57:35.839Z,998.05
2023-11-15T05:58:35.827Z,998.06
2023-11-15T05:59:35.897Z,998.08
2023-11-15T06:00:35.809Z,998.14
2023-11-15T06:01:35.842Z,998.10
2023-11-15T06:02:35.861Z,998.14
2023-11-15T06:03:35.846Z,998.12
2023-11-15T06:04:35.794Z,998.11
2023-11-15T06:05:35.838Z,998.17
2023-11-15T06:06:35.727Z,998.17
2023-11-15T06:07:35.715Z,998.20
2023-11-15T06:08:35.744Z,998.25
2023-11-15T06:09:35.701Z,998.18
2023-11-15T06:10:35.713Z,998.26
2023-11-15T06:11:35.800Z,998.25
2023-11-15T06:12:35.680Z,998.25
2023-11-15T06:13:35.662Z,998.29
2023-11-15T06:14:35.675Z,998.39
2023-11-15T06:15:35.632Z,998.38
2023-11-15T06:16:35.698Z,998.41
2023-11-15T06:17:35.752Z,998.40
2023-11-15T06:18:35.657Z,998.42
2023-11-15T06:19:35.594Z,998.47
2023-11-15T06:20:35.600Z,998.50
2023-11-15T06:21:35.583Z,998.53
2023-11-15T06:22:35.600Z,998.48
2023-11-15T06:23:35.693Z,998.62
2023-11-15T06:24:35.537Z,998.62
2023-11-15T06:25:35.517Z,998.67
2023-11-15T06:26:35.532Z,998.60
2023-11-15T06:27:35.518Z,998.68
2023-11-15T06:28:35.478Z,998.80
2023-11-15T06:29:35.576Z,998.72
2023-11-15T06:30:35.662Z,998.74
2023-11-15T06:31:35.452Z,998.75
2023-11-15T06:32:35.528Z,998.74
2023-11-15T06:33:35.511Z,998.78
2023-11-15T06:34:35.413Z,998.77
2023-11-15T06:35:35.471Z,998.81
2023-11-15T06:36:35.401Z,998.83
2023-11-15T06:37:35.433Z,998.85
2023-11-15T06:38:35.405Z,998.83
2023-11-15T06:39:35.374Z,998.76
2023-11-15T06:40:35.361Z,998.74
2023-11-15T06:41:35.479Z,998.75
2023-11-15T06:42:35.325Z,998.84
2023-11-15T06:43:35.313Z,998.85
2023-11-15T06:44:35.346Z,998.87
2023-11-15T06:45:35.303Z,998.90
2023-11-15T06:46:35.272Z,998.89
2023-11-15T06:47:35.344Z,998.95
2023-11-15T06:48:35.368Z,998.91
2023-11-15T06:49:35.263Z,998.92
2023-11-15T06:50:35.253Z,998.98
2023-11-15T06:51:35.317Z,998.99
2023-11-15T06:52:35.223Z,998.97
2023-11-15T06:53:35.253Z,999.08
2023-11-15T06:54:35.186Z,999.06
2023-11-15T06:55:35.201Z,998.99
2023-11-15T06:56:35.180Z,999.10
2023-11-15T06:57:35.148Z,999.09
2023-11-15T06:58:35.140Z,999.15
2023-11-15T06:59:35.218Z,999.16
2023-11-15T07:00:35.122Z,999.17
2023-11-15T07:01:35.136Z,999.24
2023-11-15T07:02:35.133Z,999.26
2023-11-15T07:03:35.253Z,999.21
2023-11-15T07:04:35.091Z,999.22
2023-11-15T07:05:35.132Z,999.14
2023-11-15T07:06:35.056Z,999.22
2023-11-15T07:07:35.060Z,999.21
2023-11-15T07:08:35.088Z,999.25
2023-11-15T07:09:35.029Z,999.26
2023-11-15T07:10:35.008Z,999.23
2023-11-15T07:11:35.066Z,999.31
2023-11-15T07:12:34.979Z,999.30
2023-11-15T07:13:34.965Z,999.29
2023-11-15T07:14:34.976Z,999.29
2023-11-15T07:15:34.945Z,999.32
2023-11-15T07:16:34.945Z,999.35
2023-11-15T07:17:35.027Z,999.42
2023-11-15T07:18:34.975Z,999.45
2023-11-15T07:19:34.906Z,999.46
2023-11-15T07:20:34.907Z,999.47
2023-11-15T07:21:34.881Z,999.44
2023-11-15T07:22:34.867Z,999.52
2023-11-15T07:23:34.951Z,999.55
2023-11-15T07:24:34.850Z,999.58
2023-11-15T07:25:34.842Z,999.63
2023-11-15T07:26:34.862Z,999.62
2023-11-15T07:27:34.814Z,999.71
2023-11-15T07:28:34.801Z,999.75
2023-11-15T07:29:34.872Z,999.75
2023-11-15T07:30:34.786Z,999.84
2023-11-15T07:31:34.796Z,999.83
2023-11-15T07:32:34.826Z,999.91
2023-11-15T07:33:34.808Z,999.95
2023-11-15T07:34:34.745Z,999.98
2023-11-15T07:35:34.775Z,999.90
2023-11-15T07:36:34.785Z,1000.01
2023-11-15T07:37:34.698Z,999.78
2023-11-15T07:38:34.783Z,999.95
2023-11-15T07:39:34.673Z,1000.05
2023-11-15T07:40:34.695Z,999.90
2023-11-15T07:41:36.178Z,1000.03
2023-11-15T07:42:34.643Z,1000.06
2023-11-15T07:43:34.628Z,1000.13
2023-11-15T07:44:34.644Z,1000.19
2023-11-15T07:45:34.610Z,1000.15
2023-11-15T07:46:34.612Z,1000.22
2023-11-15T07:47:34.672Z,1000.19
2023-11-15T07:48:34.661Z,1000.27
2023-11-15T07:49:34.563Z,1000.31
2023-11-15T07:50:34.641Z,1000.37
2023-11-15T07:51:34.540Z,1000.42
2023-11-15T07:52:34.559Z,1000.37
2023-11-15T07:53:34.592Z,1000.41
2023-11-15T07:54:34.545Z,1000.37
2023-11-15T07:55:34.500Z,1000.50
2023-11-15T07:56:34.886Z,1000.41
2023-11-15T07:57:34.473Z,1000.49
2023-11-15T07:58:34.471Z,1000.44
2023-11-15T07:59:34.519Z,1000.40
2023-11-15T08:00:34.442Z,1000.38
2023-11-15T08:01:34.419Z,1000.46
2023-11-15T08:02:34.634Z,1000.40
2023-11-15T08:03:34.518Z,1000.44
2023-11-15T08:04:34.506Z,1000.46
2023-11-15T08:05:34.563Z,1000.46
2023-11-15T08:06:34.418Z,1000.42
2023-11-15T08:07:34.372Z,1000.48
2023-11-15T08:08:34.362Z,1000.57
2023-11-15T08:09:34.380Z,1000.52
2023-11-15T08:10:34.337Z,1000.54
2023-11-15T08:11:34.439Z,1000.55
2023-11-15T08:12:34.304Z,1000.61
2023-11-15T08:13:34.287Z,1000.65
2023-11-15T08:14:34.333Z,1000.52
2023-11-15T08:15:34.297Z,1000.74
2023-11-15T08:16:34.286Z,1000.72
2023-11-15T08:17:34.421Z,1000.73
2023-11-15T08:18:34.315Z,1000.74
2023-11-15T08:19:34.221Z,1000.81
2023-11-15T08:20:34.256Z,1000.93
2023-11-15T08:21:34.197Z,1000.92
2023-11-15T08:22:34.193Z,1000.92
2023-11-15T08:23:34.246Z,1000.97
2023-11-15T08:24:34.168Z,1001.00
2023-11-15T08:25:34.161Z,1001.04
2023-11-15T08:26:34.170Z,1001.03
2023-11-15T08:27:34.139Z,1000.99
2023-11-15T08:28:34.139Z,1001.06
2023-11-15T08:29:34.190Z,1001.06
2023-11-15T08:30:34.105Z,1001.14
2023-11-15T08:31:34.098Z,1001.19
2023-11-15T08:32:34.185Z,1001.22
2023-11-15T08:33:34.107Z,1001.06
2023-11-15T08:34:34.078Z,1001.18
2023-11-15T08:35:34.092Z,1001.18
2023-11-15T08:36:34.045Z,1001.30
2023-11-15T08:37:34.039Z,1001.23
2023-11-15T08:38:34.069Z,1001.28
2023-11-15T08:39:34.005Z,1001.35
2023-11-15T08:40:33.995Z,1001.34
2023-11-15T08:41:34.128Z,1001.28
2023-11-15T08:42:33.959Z,1001.36
2023-11-15T08:43:37.315Z,1001.43
2023-11-15T08:44:34.016Z,1001.47
2023-11-15T08:45:33.975Z,1001.42
2023-11-15T08:46:33.928Z,1001.49
2023-11-15T08:47:34.027Z,1001.55
2023-11-15T08:48:33.980Z,1001.48
2023-11-15T08:49:33.910Z,1001.55
2023-11-15T08:50:33.950Z,1001.54
2023-11-15T08:51:33.867Z,1001.54
2023-11-15T08:52:36.189Z,1001.64
2023-11-15T08:53:33.936Z,1001.60
2023-11-15T08:54:33.833Z,1001.56
2023-11-15T08:55:33.815Z,1001.56
2023-11-15T08:56:33.823Z,1001.67
2023-11-15T08:57:33.817Z,1001.60
2023-11-15T08:58:33.808Z,1001.63
2023-11-15T08:59:33.886Z,1001.68
2023-11-15T09:00:33.770Z,1001.63
2023-11-15T09:01:33.734Z,1001.69
2023-11-15T09:02:33.815Z,1001.58
2023-11-15T09:03:33.874Z,1001.64
2023-11-15T09:04:33.774Z,1001.65
2023-11-15T09:05:33.747Z,1001.53
2023-11-15T09:06:33.695Z,1001.68
2023-11-15T09:07:33.691Z,1001.74
2023-11-15T09:08:33.709Z,1001.70
2023-11-15T09:09:33.658Z,1001.77
2023-11-15T09:10:33.665Z,1001.75
2023-11-15T09:11:33.691Z,1001.65
2023-11-15T09:12:33.626Z,1001.79
2023-11-15T09:13:33.626Z,1001.85
2023-11-15T09:14:33.629Z,1001.82
2023-11-15T09:15:33.587Z,1001.85
2023-11-15T09:16:33.592Z,1001.86
2023-11-15T09:17:33.661Z,1001.83
2023-11-15T09:18:33.696Z,1001.83
2023-11-15T09:19:33.564Z,1001.92
2023-11-15T09:20:33.628Z,1001.79
2023-11-15T09:21:33.526Z,1001.94
2023-11-15T09:22:33.508Z,1001.94
2023-11-15T09:23:33.547Z,1001.94
2023-11-15T09:24:33.519Z,1001.87
2023-11-15T09:25:33.488Z,1001.96
2023-11-15T09:26:33.507Z,1001.94
2023-11-15T09:27:33.503Z,1001.96
2023-11-15T09:28:33.475Z,1001.97
2023-11-15T09:29:33.491Z,1002.04
2023-11-15T09:30:33.423Z,1001.95
2023-11-15T09:31:33.428Z,1001.90
2023-11-15T09:32:33.541Z,1002.00
2023-11-15T09:33:33.444Z,1002.02
2023-11-15T09:34:33.404Z,1002.02
2023-11-15T09:35:33.440Z,1002.03
2023-11-15T09:36:33.392Z,1002.13
2023-11-15T09:37:33.323Z,1002.11
2023-11-15T09:38:33.340Z,1002.10
2023-11-15T09:39:33.338Z,1002.11
2023-11-15T09:40:33.302Z,1002.14
2023-11-15T09:41:33.387Z,1002.18
2023-11-15T09:42:34.431Z,1002.08
2023-11-15T09:43:33.280Z,1002.08
2023-11-15T09:44:33.298Z,1002.09
2023-11-15T09:45:33.240Z,1002.10
2023-11-15T09:46:33.295Z,1002.09
2023-11-15T09:47:33.355Z,1002.19
2023-11-15T09:48:33.319Z,1002.20
2023-11-15T09:49:33.270Z,1002.24
2023-11-15T09:50:33.288Z,1002.22
2023-11-15T09:51:33.183Z,1002.11
2023-11-15T09:52:33.176Z,1002.19
2023-11-15T09:53:34.376Z,1002.21
2023-11-15T09:54:35.386Z,1002.18
2023-11-15T09:55:33.134Z,1002.20
2023-11-15T09:56:34.249Z,1002.26
2023-11-15T09:57:33.112Z,1002.32
2023-11-15T09:58:33.101Z,1002.30
2023-11-15T09:59:33.212Z,1002.32
2023-11-15T10:00:33.112Z,1002.33
2023-11-15T10:01:33.091Z,1002.35
2023-11-15T10:02:33.130Z,1002.37
2023-11-15T10:03:33.109Z,1002.32
2023-11-15T10:04:33.040Z,1002.34
2023-11-15T10:05:33.063Z,1002.27
2023-11-15T10:06:33.039Z,1002.33
2023-11-15T10:07:32.991Z,1002.42
2023-11-15T10:08:33.017Z,1002.46
2023-11-15T10:09:32.983Z,1002.40
2023-11-15T10:10:33.048Z,1002.43
2023-11-15T10:11:32.997Z,1002.47
2023-11-15T10:12:32.968Z,1002.49
2023-11-15T10:13:33.496Z,1002.47
2023-11-15T10:14:32.930Z,1002.52
2023-11-15T10:15:32.943Z,1002.57
2023-11-15T10:16:32.901Z,1002.61
2023-11-15T10:17:32.946Z,1002.60
2023-11-15T10:18:32.910Z,1002.62
2023-11-15T10:19:32.864Z,1002.67
2023-11-15T10:20:32.851Z,1002.58
2023-11-15T10:21:32.835Z,1002.63
2023-11-15T10:22:32.839Z,1002.63
2023-11-15T10:23:33.749Z,1002.60
2023-11-15T10:24:32.823Z,1002.60
2023-11-15T10:25:32.820Z,1002.68
2023-11-15T10:26:32.768Z,1002.64
2023-11-15T10:27:32.763Z,1002.68
2023-11-15T10:28:32.775Z,1002.70
2023-11-15T10:29:32.811Z,1002.66
2023-11-15T10:30:32.737Z,1002.72
2023-11-15T10:31:32.790Z,1002.66
2023-11-15T10:32:32.733Z,1002.73
2023-11-15T10:33:32.849Z,1002.78
2023-11-15T10:34:34.377Z,1002.73
2023-11-15T10:35:33.690Z,1002.71
2023-11-15T10:36:32.689Z,1002.80
2023-11-15T10:37:32.669Z,1002.75
2023-11-15T10:38:32.637Z,1002.76
2023-11-15T10:39:32.642Z,1002.82
2023-11-15T10:40:32.605Z,1002.85
2023-11-15T10:41:32.657Z,1002.84
2023-11-15T10:42:32.608Z,1002.83
2023-11-15T10:43:32.583Z,1002.82
2023-11-15T10:44:32.590Z,1002.87
2023-11-15T10:45:32.581Z,1002.89
2023-11-15T10:46:32.876Z,1002.90
2023-11-15T10:47:32.616Z,1002.86
2023-11-15T10:48:32.607Z,1002.99
2023-11-15T10:49:32.532Z,1002.90
2023-11-15T10:50:32.509Z,1002.90
2023-11-15T10:51:32.542Z,1003.01
2023-11-15T10:52:32.487Z,1002.97
2023-11-15T10:53:32.509Z,1002.94
2023-11-15T10:54:32.494Z,1002.94
2023-11-15T10:55:32.548Z,1002.99
2023-11-15T10:56:32.445Z,1003.07
2023-11-15T10:57:32.478Z,1003.05
2023-11-15T10:58:32.435Z,1003.06
2023-11-15T10:59:32.484Z,1003.08
2023-11-15T11:00:32.491Z,1003.14
2023-11-15T11:01:32.546Z,1003.11
2023-11-15T11:02:32.472Z,1003.14
2023-11-15T11:03:32.669Z,1003.11
2023-11-15T11:04:32.494Z,1003.17
2023-11-15T11:05:32.368Z,1003.28
2023-11-15T11:06:33.117Z,1003.17
2023-11-15T11:07:32.326Z,1003.22
2023-11-15T11:08:32.316Z,1003.23
2023-11-15T11:09:32.286Z,1003.29
2023-11-15T11:10:33.380Z,1003.25
2023-11-15T11:11:32.300Z,1003.29
2023-11-15T11:12:32.286Z,1003.29
2023-11-15T11:13:32.291Z,1003.32
2023-11-15T11:14:32.283Z,1003.27
2023-11-15T11:15:32.238Z,1003.29
2023-11-15T11:16:35.988Z,1003.29
2023-11-15T11:17:32.281Z,1003.33
2023-11-15T11:18:32.324Z,1003.32
2023-11-15T11:19:32.181Z,1003.34
2023-11-15T11:20:32.165Z,1003.36
2023-11-15T11:21:32.160Z,1003.28
2023-11-15T11:22:32.138Z,1003.28
2023-11-15T11:23:34.624Z,1003.30
2023-11-15T11:24:32.138Z,1003.36
2023-11-15T11:25:32.106Z,1003.39
2023-11-15T11:26:32.106Z,1003.31
2023-11-15T11:27:32.137Z,1003.35
2023-11-15T11:28:32.077Z,1003.37
2023-11-15T11:29:32.107Z,1003.39
2023-11-15T11:30:32.141Z,1003.34
2023-11-15T11:31:32.095Z,1003.33
2023-11-15T11:32:32.060Z,1003.29
2023-11-15T11:33:32.107Z,1003.31
2023-11-15T11:34:32.017Z,1003.32
2023-11-15T11:35:32.515Z,1003.42
2023-11-15T11:36:31.994Z,1003.38
2023-11-15T11:37:31.987Z,1003.35
2023-11-15T11:38:31.966Z,1003.34
2023-11-15T11:39:31.969Z,1003.34
2023-11-15T11:40:31.956Z,1003.41
2023-11-15T11:41:31.963Z,1003.35
2023-11-15T11:42:31.907Z,1003.40
2023-11-15T11:43:31.923Z,1003.38
2023-11-15T11:44:31.902Z,1003.44
2023-11-15T11:45:31.897Z,1003.44
2023-11-15T11:46:31.937Z,1003.43
2023-11-15T11:47:31.933Z,1003.42
2023-11-15T11:48:31.959Z,1003.48
2023-11-15T11:49:31.847Z,1003.45
2023-11-15T11:50:31.825Z,1003.53
2023-11-15T11:51:31.828Z,1003.48
2023-11-15T11:52:31.804Z,1003.51
2023-11-15T11:53:31.833Z,1003.47
2023-11-15T11:54:31.796Z,1003.52
2023-11-15T11:55:31.805Z,1003.51
2023-11-15T11:56:31.785Z,1003.55
2023-11-15T11:57:31.750Z,1003.57
2023-11-15T11:58:31.770Z,1003.54
2023-11-15T11:59:31.784Z,1003.56
2023-11-15T12:00:31.742Z,1003.62
2023-11-15T12:01:31.743Z,1003.57
2023-11-15T12:02:31.731Z,1003.54
2023-11-15T12:03:32.034Z,1003.62
2023-11-15T12:04:31.744Z,1003.62
2023-11-15T12:05:31.711Z,1003.60
2023-11-15T12:06:31.641Z,1003.64
2023-11-15T12:07:31.640Z,1003.65
2023-11-15T12:08:31.632Z,1003.65
2023-11-15T12:09:31.615Z,1003.71
2023-11-15T12:10:31.608Z,1003.67
2023-11-15T12:11:31.664Z,1003.70
2023-11-15T12:12:31.564Z,1003.70
2023-11-15T12:13:31.556Z,1003.66
2023-11-15T12:14:31.541Z,1003.64
2023-11-15T12:15:31.544Z,1003.72
2023-11-15T12:16:31.579Z,1003.77
2023-11-15T12:17:31.561Z,1003.84
2023-11-15T12:18:31.596Z,1003.77
2023-11-15T12:19:31.486Z,1003.86